sensor_id;sensor_type;location;lat;lon;timestamp;P1;durP1;ratioP1;P2;durP2;ratioP2
35276;SDS011;21401;50.878;8.050;2022-09-09T00:03:53;4.07;;;2.60;;
35276;SDS011;21401;50.878;8.050;2022-09-09T00:06:30;9.02;;;3.08;;
35276;SDS011;21401;50.878;8.050;2022-09-09T00:11:51;9.73;;;2.53;;
35276;SDS011;21401;50.878;8.050;2022-09-09T00:14:45;7.10;;;2.70;;
35276;SDS011;21401;50.878;8.050;2022-09-09T00:22:51;16.20;;;2.80;;
35276;SDS011;21401;50.878;8.050;2022-09-09T00:27:59;8.98;;;2.70;;
35276;SDS011;21401;50.878;8.050;2022-09-09T00:30:26;8.55;;;2.92;;
35276;SDS011;21401;50.878;8.050;2022-09-09T00:33:08;6.70;;;3.47;;
35276;SDS011;21401;50.878;8.050;2022-09-09T00:35:50;8.82;;;4.00;;
35276;SDS011;21401;50.878;8.050;2022-09-09T00:38:26;11.93;;;2.92;;
35276;SDS011;21401;50.878;8.050;2022-09-09T00:41:00;7.80;;;2.90;;
35276;SDS011;21401;50.878;8.050;2022-09-09T00:43:29;3.83;;;2.80;;
35276;SDS011;21401;50.878;8.050;2022-09-09T00:48:44;6.43;;;2.63;;
35276;SDS011;21401;50.878;8.050;2022-09-09T00:59:33;5.68;;;2.88;;
35276;SDS011;21401;50.878;8.050;2022-09-09T01:02:26;3.50;;;3.17;;
35276;SDS011;21401;50.878;8.050;2022-09-09T01:05:13;3.95;;;2.33;;
35276;SDS011;21401;50.878;8.050;2022-09-09T01:07:47;5.30;;;2.70;;
35276;SDS011;21401;50.878;8.050;2022-09-09T01:10:21;3.47;;;2.45;;
35276;SDS011;21401;50.878;8.050;2022-09-09T01:13:14;6.43;;;2.40;;
35276;SDS011;21401;50.878;8.050;2022-09-09T01:15:58;5.15;;;2.55;;
35276;SDS011;21401;50.878;8.050;2022-09-09T01:18:49;7.70;;;2.70;;
35276;SDS011;21401;50.878;8.050;2022-09-09T01:26:35;8.13;;;2.92;;
35276;SDS011;21401;50.878;8.050;2022-09-09T01:29:02;6.35;;;3.38;;
35276;SDS011;21401;50.878;8.050;2022-09-09T01:31:40;9.95;;;3.05;;
35276;SDS011;21401;50.878;8.050;2022-09-09T01:34:15;6.32;;;3.00;;
35276;SDS011;21401;50.878;8.050;2022-09-09T01:36:42;6.22;;;2.88;;
35276;SDS011;21401;50.878;8.050;2022-09-09T01:39:22;6.70;;;2.50;;
35276;SDS011;21401;50.878;8.050;2022-09-09T01:41:48;7.18;;;2.85;;
35276;SDS011;21401;50.878;8.050;2022-09-09T01:44:14;6.75;;;3.35;;
35276;SDS011;21401;50.878;8.050;2022-09-09T01:46:39;7.15;;;3.92;;
35276;SDS011;21401;50.878;8.050;2022-09-09T01:49:07;7.47;;;3.78;;
35276;SDS011;21401;50.878;8.050;2022-09-09T01:51:34;16.25;;;5.75;;
35276;SDS011;21401;50.878;8.050;2022-09-09T01:54:02;10.98;;;3.20;;
35276;SDS011;21401;50.878;8.050;2022-09-09T02:06:57;8.73;;;3.30;;
35276;SDS011;21401;50.878;8.050;2022-09-09T02:09:27;6.90;;;3.00;;
35276;SDS011;21401;50.878;8.050;2022-09-09T02:12:14;7.32;;;3.13;;
35276;SDS011;21401;50.878;8.050;2022-09-09T02:14:47;6.10;;;2.92;;
35276;SDS011;21401;50.878;8.050;2022-09-09T02:17:19;4.15;;;2.97;;
35276;SDS011;21401;50.878;8.050;2022-09-09T02:19:53;8.43;;;2.97;;
35276;SDS011;21401;50.878;8.050;2022-09-09T02:22:26;7.82;;;3.60;;
35276;SDS011;21401;50.878;8.050;2022-09-09T02:24:54;5.72;;;3.80;;
35276;SDS011;21401;50.878;8.050;2022-09-09T02:27:24;5.97;;;3.78;;
35276;SDS011;21401;50.878;8.050;2022-09-09T02:29:50;4.40;;;3.15;;
35276;SDS011;21401;50.878;8.050;2022-09-09T02:32:19;11.13;;;4.30;;
35276;SDS011;21401;50.878;8.050;2022-09-09T02:34:48;10.02;;;5.50;;
35276;SDS011;21401;50.878;8.050;2022-09-09T02:37:19;10.00;;;4.97;;
35276;SDS011;21401;50.878;8.050;2022-09-09T02:39:53;12.32;;;4.22;;
35276;SDS011;21401;50.878;8.050;2022-09-09T02:42:19;7.40;;;4.07;;
35276;SDS011;21401;50.878;8.050;2022-09-09T02:44:47;5.55;;;2.60;;
35276;SDS011;21401;50.878;8.050;2022-09-09T02:50:26;5.18;;;3.00;;
35276;SDS011;21401;50.878;8.050;2022-09-09T02:53:17;9.30;;;4.03;;
35276;SDS011;21401;50.878;8.050;2022-09-09T02:55:47;7.50;;;4.20;;
35276;SDS011;21401;50.878;8.050;2022-09-09T02:58:17;15.75;;;5.72;;
35276;SDS011;21401;50.878;8.050;2022-09-09T03:00:45;12.07;;;5.47;;
35276;SDS011;21401;50.878;8.050;2022-09-09T03:03:12;6.47;;;3.97;;
35276;SDS011;21401;50.878;8.050;2022-09-09T03:05:38;10.65;;;4.43;;
35276;SDS011;21401;50.878;8.050;2022-09-09T03:08:05;7.55;;;3.63;;
35276;SDS011;21401;50.878;8.050;2022-09-09T03:10:33;11.63;;;5.03;;
35276;SDS011;21401;50.878;8.050;2022-09-09T03:13:00;10.27;;;5.63;;
35276;SDS011;21401;50.878;8.050;2022-09-09T03:15:25;9.93;;;4.78;;
35276;SDS011;21401;50.878;8.050;2022-09-09T03:17:55;10.38;;;5.00;;
35276;SDS011;21401;50.878;8.050;2022-09-09T03:20:22;6.15;;;3.63;;
35276;SDS011;21401;50.878;8.050;2022-09-09T03:22:52;13.18;;;3.30;;
35276;SDS011;21401;50.878;8.050;2022-09-09T03:25:20;11.43;;;2.50;;
35276;SDS011;21401;50.878;8.050;2022-09-09T03:27:48;13.82;;;3.78;;
35276;SDS011;21401;50.878;8.050;2022-09-09T03:30:19;10.20;;;5.53;;
35276;SDS011;21401;50.878;8.050;2022-09-09T03:32:45;16.48;;;5.35;;
35276;SDS011;21401;50.878;8.050;2022-09-09T03:35:11;15.32;;;5.80;;
35276;SDS011;21401;50.878;8.050;2022-09-09T03:37:36;9.90;;;4.90;;
35276;SDS011;21401;50.878;8.050;2022-09-09T03:40:03;16.08;;;5.65;;
35276;SDS011;21401;50.878;8.050;2022-09-09T03:42:29;17.77;;;5.00;;
35276;SDS011;21401;50.878;8.050;2022-09-09T03:44:56;10.50;;;4.40;;
35276;SDS011;21401;50.878;8.050;2022-09-09T03:47:22;15.93;;;6.93;;
35276;SDS011;21401;50.878;8.050;2022-09-09T03:49:50;17.02;;;7.10;;
35276;SDS011;21401;50.878;8.050;2022-09-09T03:52:18;13.90;;;4.25;;
35276;SDS011;21401;50.878;8.050;2022-09-09T03:54:44;9.45;;;4.82;;
35276;SDS011;21401;50.878;8.050;2022-09-09T03:57:10;14.90;;;4.95;;
35276;SDS011;21401;50.878;8.050;2022-09-09T03:59:36;14.35;;;6.10;;
35276;SDS011;21401;50.878;8.050;2022-09-09T04:02:01;17.75;;;7.05;;
35276;SDS011;21401;50.878;8.050;2022-09-09T04:04:28;14.00;;;6.38;;
35276;SDS011;21401;50.878;8.050;2022-09-09T04:06:56;15.75;;;6.25;;
35276;SDS011;21401;50.878;8.050;2022-09-09T04:09:21;17.73;;;6.38;;
35276;SDS011;21401;50.878;8.050;2022-09-09T04:11:47;13.68;;;5.85;;
35276;SDS011;21401;50.878;8.050;2022-09-09T04:14:13;12.52;;;5.30;;
35276;SDS011;21401;50.878;8.050;2022-09-09T04:16:41;12.48;;;3.53;;
35276;SDS011;21401;50.878;8.050;2022-09-09T04:19:10;9.88;;;2.65;;
35276;SDS011;21401;50.878;8.050;2022-09-09T04:21:38;11.07;;;3.30;;
35276;SDS011;21401;50.878;8.050;2022-09-09T04:24:08;10.48;;;5.30;;
35276;SDS011;21401;50.878;8.050;2022-09-09T04:26:34;12.40;;;4.40;;
35276;SDS011;21401;50.878;8.050;2022-09-09T04:29:02;15.70;;;5.47;;
35276;SDS011;21401;50.878;8.050;2022-09-09T04:31:28;15.68;;;6.43;;
35276;SDS011;21401;50.878;8.050;2022-09-09T04:33:54;26.17;;;10.55;;
35276;SDS011;21401;50.878;8.050;2022-09-09T04:36:20;21.63;;;9.70;;
35276;SDS011;21401;50.878;8.050;2022-09-09T04:38:46;26.85;;;9.43;;
35276;SDS011;21401;50.878;8.050;2022-09-09T04:41:13;15.55;;;5.82;;
35276;SDS011;21401;50.878;8.050;2022-09-09T04:43:39;17.90;;;7.10;;
35276;SDS011;21401;50.878;8.050;2022-09-09T04:46:07;14.45;;;5.60;;
35276;SDS011;21401;50.878;8.050;2022-09-09T04:48:33;11.77;;;4.35;;
35276;SDS011;21401;50.878;8.050;2022-09-09T04:51:03;11.98;;;2.10;;
35276;SDS011;21401;50.878;8.050;2022-09-09T04:53:31;12.93;;;7.25;;
35276;SDS011;21401;50.878;8.050;2022-09-09T04:56:09;11.73;;;3.25;;
35276;SDS011;21401;50.878;8.050;2022-09-09T04:58:41;7.40;;;1.85;;
35276;SDS011;21401;50.878;8.050;2022-09-09T05:01:09;11.85;;;2.15;;
35276;SDS011;21401;50.878;8.050;2022-09-09T05:03:36;15.43;;;6.25;;
35276;SDS011;21401;50.878;8.050;2022-09-09T05:06:05;5.82;;;1.73;;
35276;SDS011;21401;50.878;8.050;2022-09-09T05:08:39;6.38;;;1.60;;
35276;SDS011;21401;50.878;8.050;2022-09-09T05:11:15;6.15;;;1.80;;
35276;SDS011;21401;50.878;8.050;2022-09-09T05:13:49;8.00;;;2.10;;
35276;SDS011;21401;50.878;8.050;2022-09-09T05:16:15;3.25;;;1.35;;
35276;SDS011;21401;50.878;8.050;2022-09-09T05:18:42;5.75;;;2.03;;
35276;SDS011;21401;50.878;8.050;2022-09-09T05:21:11;5.95;;;1.70;;
35276;SDS011;21401;50.878;8.050;2022-09-09T05:23:40;6.82;;;1.42;;
35276;SDS011;21401;50.878;8.050;2022-09-09T05:26:06;3.60;;;1.10;;
35276;SDS011;21401;50.878;8.050;2022-09-09T05:28:36;12.00;;;1.95;;
35276;SDS011;21401;50.878;8.050;2022-09-09T05:31:02;4.75;;;1.75;;
35276;SDS011;21401;50.878;8.050;2022-09-09T05:33:31;3.90;;;1.40;;
35276;SDS011;21401;50.878;8.050;2022-09-09T05:35:58;10.60;;;2.05;;
35276;SDS011;21401;50.878;8.050;2022-09-09T05:38:32;5.60;;;1.23;;
35276;SDS011;21401;50.878;8.050;2022-09-09T05:40:59;6.57;;;1.65;;
35276;SDS011;21401;50.878;8.050;2022-09-09T05:43:26;5.05;;;1.50;;
35276;SDS011;21401;50.878;8.050;2022-09-09T05:48:30;9.13;;;2.15;;
35276;SDS011;21401;50.878;8.050;2022-09-09T05:50:59;8.60;;;1.63;;
35276;SDS011;21401;50.878;8.050;2022-09-09T05:53:26;6.70;;;1.80;;
35276;SDS011;21401;50.878;8.050;2022-09-09T05:58:26;5.82;;;1.65;;
35276;SDS011;21401;50.878;8.050;2022-09-09T06:01:00;8.23;;;2.05;;
35276;SDS011;21401;50.878;8.050;2022-09-09T06:03:32;6.22;;;1.70;;
35276;SDS011;21401;50.878;8.050;2022-09-09T06:05:59;5.35;;;1.52;;
35276;SDS011;21401;50.878;8.050;2022-09-09T06:08:32;10.80;;;1.88;;
35276;SDS011;21401;50.878;8.050;2022-09-09T06:11:03;8.50;;;1.90;;
35276;SDS011;21401;50.878;8.050;2022-09-09T06:13:30;9.77;;;2.42;;
35276;SDS011;21401;50.878;8.050;2022-09-09T06:15:56;8.95;;;1.58;;
35276;SDS011;21401;50.878;8.050;2022-09-09T06:18:23;3.63;;;1.55;;
35276;SDS011;21401;50.878;8.050;2022-09-09T06:23:21;7.70;;;1.83;;
35276;SDS011;21401;50.878;8.050;2022-09-09T06:25:47;6.70;;;1.55;;
35276;SDS011;21401;50.878;8.050;2022-09-09T06:28:16;5.95;;;1.73;;
35276;SDS011;21401;50.878;8.050;2022-09-09T06:30:44;7.40;;;1.67;;
35276;SDS011;21401;50.878;8.050;2022-09-09T06:33:10;9.23;;;2.22;;
35276;SDS011;21401;50.878;8.050;2022-09-09T06:35:40;6.57;;;1.55;;
35276;SDS011;21401;50.878;8.050;2022-09-09T06:38:05;8.07;;;1.60;;
35276;SDS011;21401;50.878;8.050;2022-09-09T06:40:31;7.60;;;1.33;;
35276;SDS011;21401;50.878;8.050;2022-09-09T06:42:59;4.60;;;1.17;;
35276;SDS011;21401;50.878;8.050;2022-09-09T06:45:29;6.53;;;1.27;;
35276;SDS011;21401;50.878;8.050;2022-09-09T06:47:56;10.35;;;1.73;;
35276;SDS011;21401;50.878;8.050;2022-09-09T06:50:21;11.20;;;1.88;;
35276;SDS011;21401;50.878;8.050;2022-09-09T06:52:47;9.23;;;1.23;;
35276;SDS011;21401;50.878;8.050;2022-09-09T06:55:16;13.07;;;1.83;;
35276;SDS011;21401;50.878;8.050;2022-09-09T06:57:45;5.43;;;1.50;;
35276;SDS011;21401;50.878;8.050;2022-09-09T07:00:13;8.02;;;1.40;;
35276;SDS011;21401;50.878;8.050;2022-09-09T07:02:39;8.40;;;1.75;;
35276;SDS011;21401;50.878;8.050;2022-09-09T07:05:08;6.03;;;1.95;;
35276;SDS011;21401;50.878;8.050;2022-09-09T07:07:34;4.18;;;1.20;;
35276;SDS011;21401;50.878;8.050;2022-09-09T07:10:00;8.80;;;1.90;;
35276;SDS011;21401;50.878;8.050;2022-09-09T07:12:29;13.90;;;2.00;;
35276;SDS011;21401;50.878;8.050;2022-09-09T07:14:54;6.88;;;1.35;;
35276;SDS011;21401;50.878;8.050;2022-09-09T07:17:20;8.82;;;1.90;;
35276;SDS011;21401;50.878;8.050;2022-09-09T07:19:45;7.43;;;1.63;;
35276;SDS011;21401;50.878;8.050;2022-09-09T07:22:12;5.05;;;1.02;;
35276;SDS011;21401;50.878;8.050;2022-09-09T07:24:41;3.83;;;0.98;;
35276;SDS011;21401;50.878;8.050;2022-09-09T07:27:06;10.15;;;2.60;;
35276;SDS011;21401;50.878;8.050;2022-09-09T07:29:32;7.50;;;1.85;;
35276;SDS011;21401;50.878;8.050;2022-09-09T07:31:58;5.85;;;2.20;;
35276;SDS011;21401;50.878;8.050;2022-09-09T07:34:24;7.60;;;1.77;;
35276;SDS011;21401;50.878;8.050;2022-09-09T07:36:52;5.82;;;1.10;;
35276;SDS011;21401;50.878;8.050;2022-09-09T07:39:21;14.80;;;2.80;;
35276;SDS011;21401;50.878;8.050;2022-09-09T07:41:48;7.72;;;2.50;;
35276;SDS011;21401;50.878;8.050;2022-09-09T07:44:15;8.50;;;2.08;;
35276;SDS011;21401;50.878;8.050;2022-09-09T07:46:46;6.80;;;2.88;;
35276;SDS011;21401;50.878;8.050;2022-09-09T07:49:12;5.40;;;1.35;;
35276;SDS011;21401;50.878;8.050;2022-09-09T07:51:39;10.38;;;2.05;;
35276;SDS011;21401;50.878;8.050;2022-09-09T07:54:12;8.18;;;2.13;;
35276;SDS011;21401;50.878;8.050;2022-09-09T07:56:40;7.32;;;1.40;;
35276;SDS011;21401;50.878;8.050;2022-09-09T07:59:06;6.25;;;1.63;;
35276;SDS011;21401;50.878;8.050;2022-09-09T08:01:36;6.50;;;1.00;;
35276;SDS011;21401;50.878;8.050;2022-09-09T08:04:08;7.45;;;1.23;;
35276;SDS011;21401;50.878;8.050;2022-09-09T08:06:40;4.78;;;0.80;;
35276;SDS011;21401;50.878;8.050;2022-09-09T08:09:07;9.73;;;1.17;;
35276;SDS011;21401;50.878;8.050;2022-09-09T08:11:34;7.90;;;1.10;;
35276;SDS011;21401;50.878;8.050;2022-09-09T08:14:01;8.43;;;1.40;;
35276;SDS011;21401;50.878;8.050;2022-09-09T08:16:28;20.27;;;4.65;;
35276;SDS011;21401;50.878;8.050;2022-09-09T08:18:55;7.32;;;1.23;;
35276;SDS011;21401;50.878;8.050;2022-09-09T08:21:26;4.60;;;0.90;;
35276;SDS011;21401;50.878;8.050;2022-09-09T08:23:53;6.50;;;1.05;;
35276;SDS011;21401;50.878;8.050;2022-09-09T08:26:21;7.68;;;1.25;;
35276;SDS011;21401;50.878;8.050;2022-09-09T08:28:49;5.43;;;1.48;;
35276;SDS011;21401;50.878;8.050;2022-09-09T08:31:20;9.02;;;1.45;;
35276;SDS011;21401;50.878;8.050;2022-09-09T08:33:49;7.15;;;1.63;;
35276;SDS011;21401;50.878;8.050;2022-09-09T08:36:16;8.75;;;1.40;;
35276;SDS011;21401;50.878;8.050;2022-09-09T08:38:46;9.00;;;2.30;;
35276;SDS011;21401;50.878;8.050;2022-09-09T08:46:46;10.07;;;1.58;;
35276;SDS011;21401;50.878;8.050;2022-09-09T08:52:24;6.93;;;1.20;;
35276;SDS011;21401;50.878;8.050;2022-09-09T08:57:28;9.75;;;1.67;;
35276;SDS011;21401;50.878;8.050;2022-09-09T08:59:57;8.85;;;2.63;;
35276;SDS011;21401;50.878;8.050;2022-09-09T09:05:06;6.50;;;1.88;;
35276;SDS011;21401;50.878;8.050;2022-09-09T09:10:32;7.10;;;1.00;;
35276;SDS011;21401;50.878;8.050;2022-09-09T09:13:13;5.93;;;1.58;;
35276;SDS011;21401;50.878;8.050;2022-09-09T09:15:46;3.92;;;1.35;;
35276;SDS011;21401;50.878;8.050;2022-09-09T09:18:17;8.93;;;1.60;;
35276;SDS011;21401;50.878;8.050;2022-09-09T09:23:24;7.75;;;1.85;;
35276;SDS011;21401;50.878;8.050;2022-09-09T09:25:52;5.28;;;0.93;;
35276;SDS011;21401;50.878;8.050;2022-09-09T09:28:27;6.43;;;1.05;;
35276;SDS011;21401;50.878;8.050;2022-09-09T09:30:59;5.57;;;1.20;;
35276;SDS011;21401;50.878;8.050;2022-09-09T09:36:07;5.78;;;1.13;;
35276;SDS011;21401;50.878;8.050;2022-09-09T09:38:34;9.85;;;1.27;;
35276;SDS011;21401;50.878;8.050;2022-09-09T09:41:04;6.90;;;1.52;;
35276;SDS011;21401;50.878;8.050;2022-09-09T09:43:35;11.32;;;2.88;;
35276;SDS011;21401;50.878;8.050;2022-09-09T09:46:04;8.65;;;1.50;;
35276;SDS011;21401;50.878;8.050;2022-09-09T09:48:30;6.72;;;1.80;;
35276;SDS011;21401;50.878;8.050;2022-09-09T09:51:00;3.80;;;0.90;;
35276;SDS011;21401;50.878;8.050;2022-09-09T09:53:31;5.22;;;1.00;;
35276;SDS011;21401;50.878;8.050;2022-09-09T09:58:37;4.13;;;1.10;;
35276;SDS011;21401;50.878;8.050;2022-09-09T10:01:30;4.95;;;0.88;;
35276;SDS011;21401;50.878;8.050;2022-09-09T10:04:01;6.15;;;0.85;;
35276;SDS011;21401;50.878;8.050;2022-09-09T10:06:38;5.30;;;1.38;;
35276;SDS011;21401;50.878;8.050;2022-09-09T10:09:20;3.03;;;0.75;;
35276;SDS011;21401;50.878;8.050;2022-09-09T10:11:52;5.47;;;1.25;;
35276;SDS011;21401;50.878;8.050;2022-09-09T10:19:37;10.13;;;1.42;;
35276;SDS011;21401;50.878;8.050;2022-09-09T10:22:06;5.38;;;0.98;;
35276;SDS011;21401;50.878;8.050;2022-09-09T10:25:07;8.07;;;1.13;;
35276;SDS011;21401;50.878;8.050;2022-09-09T10:28:18;4.63;;;0.80;;
35276;SDS011;21401;50.878;8.050;2022-09-09T10:34:01;5.90;;;0.90;;
35276;SDS011;21401;50.878;8.050;2022-09-09T10:36:28;5.53;;;1.25;;
35276;SDS011;21401;50.878;8.050;2022-09-09T10:39:04;5.50;;;1.17;;
35276;SDS011;21401;50.878;8.050;2022-09-09T10:47:20;3.03;;;1.10;;
35276;SDS011;21401;50.878;8.050;2022-09-09T10:49:53;5.15;;;0.75;;
35276;SDS011;21401;50.878;8.050;2022-09-09T10:54:57;4.32;;;1.23;;
35276;SDS011;21401;50.878;8.050;2022-09-09T11:00:13;2.53;;;0.80;;
35276;SDS011;21401;50.878;8.050;2022-09-09T11:02:42;3.70;;;0.93;;
35276;SDS011;21401;50.878;8.050;2022-09-09T11:08:30;3.13;;;0.63;;
35276;SDS011;21401;50.878;8.050;2022-09-09T11:11:09;10.02;;;1.17;;
35276;SDS011;21401;50.878;8.050;2022-09-09T11:45:10;3.50;;;1.02;;
35276;SDS011;21401;50.878;8.050;2022-09-09T11:47:51;10.57;;;1.25;;
35276;SDS011;21401;50.878;8.050;2022-09-09T11:50:37;7.22;;;1.50;;
35276;SDS011;21401;50.878;8.050;2022-09-09T11:53:24;8.60;;;2.75;;
35276;SDS011;21401;50.878;8.050;2022-09-09T11:56:11;5.65;;;1.83;;
35276;SDS011;21401;50.878;8.050;2022-09-09T11:58:42;8.38;;;1.60;;
35276;SDS011;21401;50.878;8.050;2022-09-09T12:01:29;7.97;;;1.63;;
35276;SDS011;21401;50.878;8.050;2022-09-09T12:06:41;3.35;;;0.80;;
35276;SDS011;21401;50.878;8.050;2022-09-09T12:09:19;3.75;;;0.70;;
35276;SDS011;21401;50.878;8.050;2022-09-09T12:17:26;4.18;;;0.63;;
35276;SDS011;21401;50.878;8.050;2022-09-09T12:22:37;8.63;;;1.10;;
35276;SDS011;21401;50.878;8.050;2022-09-09T12:30:54;4.38;;;0.98;;
35276;SDS011;21401;50.878;8.050;2022-09-09T12:33:39;2.28;;;0.40;;
35276;SDS011;21401;50.878;8.050;2022-09-09T12:36:12;2.90;;;1.17;;
35276;SDS011;21401;50.878;8.050;2022-09-09T12:38:44;4.53;;;0.80;;
35276;SDS011;21401;50.878;8.050;2022-09-09T12:43:50;3.65;;;0.50;;
35276;SDS011;21401;50.878;8.050;2022-09-09T12:46:30;5.18;;;1.08;;
35276;SDS011;21401;50.878;8.050;2022-09-09T12:48:58;5.22;;;0.90;;
35276;SDS011;21401;50.878;8.050;2022-09-09T12:51:29;3.47;;;0.95;;
35276;SDS011;21401;50.878;8.050;2022-09-09T12:53:59;5.40;;;0.70;;
35276;SDS011;21401;50.878;8.050;2022-09-09T12:56:29;7.63;;;1.33;;
35276;SDS011;21401;50.878;8.050;2022-09-09T12:58:57;3.58;;;0.93;;
35276;SDS011;21401;50.878;8.050;2022-09-09T13:01:30;5.10;;;1.45;;
35276;SDS011;21401;50.878;8.050;2022-09-09T13:03:58;5.68;;;0.95;;
35276;SDS011;21401;50.878;8.050;2022-09-09T13:06:28;1.73;;;0.57;;
35276;SDS011;21401;50.878;8.050;2022-09-09T13:08:57;2.78;;;0.75;;
35276;SDS011;21401;50.878;8.050;2022-09-09T13:11:31;5.22;;;1.15;;
35276;SDS011;21401;50.878;8.050;2022-09-09T13:14:03;3.15;;;0.68;;
35276;SDS011;21401;50.878;8.050;2022-09-09T13:16:34;3.38;;;0.60;;
35276;SDS011;21401;50.878;8.050;2022-09-09T13:19:02;3.13;;;0.70;;
35276;SDS011;21401;50.878;8.050;2022-09-09T13:21:34;2.92;;;0.77;;
35276;SDS011;21401;50.878;8.050;2022-09-09T13:24:04;9.63;;;1.33;;
35276;SDS011;21401;50.878;8.050;2022-09-09T13:26:32;3.97;;;0.75;;
35276;SDS011;21401;50.878;8.050;2022-09-09T13:29:16;2.75;;;0.60;;
35276;SDS011;21401;50.878;8.050;2022-09-09T13:31:45;2.65;;;0.80;;
35276;SDS011;21401;50.878;8.050;2022-09-09T13:34:25;2.15;;;0.60;;
35276;SDS011;21401;50.878;8.050;2022-09-09T13:36:54;4.88;;;0.60;;
35276;SDS011;21401;50.878;8.050;2022-09-09T13:39:27;7.55;;;1.45;;
35276;SDS011;21401;50.878;8.050;2022-09-09T13:41:55;3.58;;;1.20;;
35276;SDS011;21401;50.878;8.050;2022-09-09T13:44:27;2.97;;;1.25;;
35276;SDS011;21401;50.878;8.050;2022-09-09T13:47:05;4.75;;;0.95;;
35276;SDS011;21401;50.878;8.050;2022-09-09T13:49:43;5.38;;;0.88;;
35276;SDS011;21401;50.878;8.050;2022-09-09T13:52:14;2.92;;;0.90;;
35276;SDS011;21401;50.878;8.050;2022-09-09T13:54:47;2.20;;;0.70;;
35276;SDS011;21401;50.878;8.050;2022-09-09T13:57:18;3.92;;;0.50;;
35276;SDS011;21401;50.878;8.050;2022-09-09T13:59:48;6.45;;;0.70;;
35276;SDS011;21401;50.878;8.050;2022-09-09T14:02:14;1.77;;;0.50;;
35276;SDS011;21401;50.878;8.050;2022-09-09T14:04:41;3.85;;;0.75;;
35276;SDS011;21401;50.878;8.050;2022-09-09T14:07:16;3.17;;;0.80;;
35276;SDS011;21401;50.878;8.050;2022-09-09T14:09:43;2.67;;;0.70;;
35276;SDS011;21401;50.878;8.050;2022-09-09T14:12:11;3.30;;;0.77;;
35276;SDS011;21401;50.878;8.050;2022-09-09T14:14:38;3.63;;;0.77;;
35276;SDS011;21401;50.878;8.050;2022-09-09T14:17:04;4.15;;;1.33;;
35276;SDS011;21401;50.878;8.050;2022-09-09T14:19:32;2.92;;;0.73;;
35276;SDS011;21401;50.878;8.050;2022-09-09T14:21:58;3.13;;;0.70;;
35276;SDS011;21401;50.878;8.050;2022-09-09T14:24:26;4.47;;;0.70;;
35276;SDS011;21401;50.878;8.050;2022-09-09T14:26:53;2.47;;;0.57;;
35276;SDS011;21401;50.878;8.050;2022-09-09T14:29:19;3.22;;;0.50;;
35276;SDS011;21401;50.878;8.050;2022-09-09T14:31:44;3.65;;;0.60;;
35276;SDS011;21401;50.878;8.050;2022-09-09T14:34:10;4.70;;;0.60;;
35276;SDS011;21401;50.878;8.050;2022-09-09T14:36:39;2.33;;;0.80;;
35276;SDS011;21401;50.878;8.050;2022-09-09T14:39:07;6.05;;;0.75;;
35276;SDS011;21401;50.878;8.050;2022-09-09T14:41:33;2.20;;;0.55;;
35276;SDS011;21401;50.878;8.050;2022-09-09T14:43:58;3.15;;;0.60;;
35276;SDS011;21401;50.878;8.050;2022-09-09T14:46:24;2.35;;;0.68;;
35276;SDS011;21401;50.878;8.050;2022-09-09T14:48:51;2.17;;;0.43;;
35276;SDS011;21401;50.878;8.050;2022-09-09T14:51:21;3.72;;;0.80;;
35276;SDS011;21401;50.878;8.050;2022-09-09T14:53:52;3.00;;;0.80;;
35276;SDS011;21401;50.878;8.050;2022-09-09T14:56:19;6.50;;;1.02;;
35276;SDS011;21401;50.878;8.050;2022-09-09T14:58:48;7.68;;;1.17;;
35276;SDS011;21401;50.878;8.050;2022-09-09T15:01:18;5.38;;;1.10;;
35276;SDS011;21401;50.878;8.050;2022-09-09T15:03:49;7.55;;;1.58;;
35276;SDS011;21401;50.878;8.050;2022-09-09T15:06:19;7.90;;;1.60;;
35276;SDS011;21401;50.878;8.050;2022-09-09T15:08:46;6.63;;;1.40;;
35276;SDS011;21401;50.878;8.050;2022-09-09T15:11:15;7.15;;;1.45;;
35276;SDS011;21401;50.878;8.050;2022-09-09T15:13:43;8.50;;;1.67;;
35276;SDS011;21401;50.878;8.050;2022-09-09T15:16:16;5.57;;;1.13;;
35276;SDS011;21401;50.878;8.050;2022-09-09T15:18:43;3.80;;;1.23;;
35276;SDS011;21401;50.878;8.050;2022-09-09T15:21:12;7.20;;;2.15;;
35276;SDS011;21401;50.878;8.050;2022-09-09T15:26:10;6.95;;;2.03;;
35276;SDS011;21401;50.878;8.050;2022-09-09T15:28:39;6.10;;;2.08;;
35276;SDS011;21401;50.878;8.050;2022-09-09T15:31:06;4.18;;;1.45;;
35276;SDS011;21401;50.878;8.050;2022-09-09T15:33:34;5.10;;;1.35;;
35276;SDS011;21401;50.878;8.050;2022-09-09T15:36:12;3.58;;;0.90;;
35276;SDS011;21401;50.878;8.050;2022-09-09T15:38:49;5.10;;;0.90;;
35276;SDS011;21401;50.878;8.050;2022-09-09T15:41:16;5.32;;;1.20;;
35276;SDS011;21401;50.878;8.050;2022-09-09T15:43:50;2.75;;;0.95;;
35276;SDS011;21401;50.878;8.050;2022-09-09T15:48:54;4.75;;;1.50;;
35276;SDS011;21401;50.878;8.050;2022-09-09T15:51:21;3.63;;;1.10;;
35276;SDS011;21401;50.878;8.050;2022-09-09T15:53:48;2.65;;;0.80;;
35276;SDS011;21401;50.878;8.050;2022-09-09T15:56:18;2.80;;;0.70;;
35276;SDS011;21401;50.878;8.050;2022-09-09T15:58:43;1.85;;;0.68;;
35276;SDS011;21401;50.878;8.050;2022-09-09T16:01:09;2.80;;;0.65;;
35276;SDS011;21401;50.878;8.050;2022-09-09T16:03:37;2.15;;;0.98;;
35276;SDS011;21401;50.878;8.050;2022-09-09T16:06:04;5.78;;;1.27;;
35276;SDS011;21401;50.878;8.050;2022-09-09T16:08:37;2.30;;;0.80;;
35276;SDS011;21401;50.878;8.050;2022-09-09T16:11:08;3.08;;;0.80;;
35276;SDS011;21401;50.878;8.050;2022-09-09T16:13:47;4.10;;;0.90;;
35276;SDS011;21401;50.878;8.050;2022-09-09T16:16:14;5.25;;;0.88;;
35276;SDS011;21401;50.878;8.050;2022-09-09T16:18:46;5.60;;;1.10;;
35276;SDS011;21401;50.878;8.050;2022-09-09T16:21:19;7.35;;;1.00;;
35276;SDS011;21401;50.878;8.050;2022-09-09T16:23:50;3.25;;;0.95;;
35276;SDS011;21401;50.878;8.050;2022-09-09T16:26:18;5.35;;;1.20;;
35276;SDS011;21401;50.878;8.050;2022-09-09T16:28:44;10.95;;;1.23;;
35276;SDS011;21401;50.878;8.050;2022-09-09T16:31:14;2.47;;;1.20;;
35276;SDS011;21401;50.878;8.050;2022-09-09T16:33:42;1.38;;;0.68;;
35276;SDS011;21401;50.878;8.050;2022-09-09T16:36:09;7.07;;;1.35;;
35276;SDS011;21401;50.878;8.050;2022-09-09T16:38:39;10.18;;;1.35;;
35276;SDS011;21401;50.878;8.050;2022-09-09T16:41:08;3.85;;;1.25;;
35276;SDS011;21401;50.878;8.050;2022-09-09T16:43:36;6.68;;;1.33;;
35276;SDS011;21401;50.878;8.050;2022-09-09T16:46:02;3.13;;;0.90;;
35276;SDS011;21401;50.878;8.050;2022-09-09T16:48:38;4.53;;;1.13;;
35276;SDS011;21401;50.878;8.050;2022-09-09T16:51:04;3.15;;;1.10;;
35276;SDS011;21401;50.878;8.050;2022-09-09T16:53:32;3.58;;;1.10;;
35276;SDS011;21401;50.878;8.050;2022-09-09T16:56:04;3.42;;;0.70;;
35276;SDS011;21401;50.878;8.050;2022-09-09T16:58:33;4.72;;;0.60;;
35276;SDS011;21401;50.878;8.050;2022-09-09T17:01:02;4.00;;;0.65;;
35276;SDS011;21401;50.878;8.050;2022-09-09T17:03:29;6.28;;;0.68;;
35276;SDS011;21401;50.878;8.050;2022-09-09T17:05:56;1.80;;;0.60;;
35276;SDS011;21401;50.878;8.050;2022-09-09T17:08:22;8.07;;;0.60;;
35276;SDS011;21401;50.878;8.050;2022-09-09T17:10:50;1.98;;;0.55;;
35276;SDS011;21401;50.878;8.050;2022-09-09T17:13:16;4.43;;;0.60;;
35276;SDS011;21401;50.878;8.050;2022-09-09T17:15:44;2.67;;;0.57;;
35276;SDS011;21401;50.878;8.050;2022-09-09T17:18:13;2.78;;;0.75;;
35276;SDS011;21401;50.878;8.050;2022-09-09T17:20:39;5.10;;;0.68;;
35276;SDS011;21401;50.878;8.050;2022-09-09T17:23:06;1.88;;;0.47;;
35276;SDS011;21401;50.878;8.050;2022-09-09T17:25:32;3.55;;;0.55;;
35276;SDS011;21401;50.878;8.050;2022-09-09T17:27:59;2.22;;;0.65;;
35276;SDS011;21401;50.878;8.050;2022-09-09T17:30:25;3.83;;;0.80;;
35276;SDS011;21401;50.878;8.050;2022-09-09T17:32:53;8.05;;;1.30;;
35276;SDS011;21401;50.878;8.050;2022-09-09T17:35:19;4.05;;;1.13;;
35276;SDS011;21401;50.878;8.050;2022-09-09T17:37:44;3.67;;;0.63;;